Bella Fino — 27132QC — position and weather

sailwx.info

Track history (hours):
 
Tides and Currents Weather Stations Pressure Air Temp Water Temp Dewpoint Dewpoint Depression Visibility Wind Speed Wind Dir Waves Ship Positions

Bella Fino

Last reported at 2017-Nov-19 23:16 UTC. Time now 2017-Nov-21 06:14 UTC.
Position S 32°55' E 152°04'.

Length 20 m.

Type: Pleasure craft. MMSI: 503519500.

Date/timePositionNaut miles runAvg speedWind from/ knotsBaromVisibWave heightAir tempDewpointWater temp
2017-Nov-19 23:16S 32°55' E 152°04'311.1
2017-Nov-19 22:59S 32°52' E 152°06'510.9
2017-Nov-19 22:30S 32°48' E 152°10'510.7
2017-Nov-19 22:00S 32°44' E 152°14'611.0
2017-Nov-19 21:30S 32°40' E 152°19'611.2
2017-Nov-19 20:59S 32°36' E 152°24'26411.7
2017-Nov-18 22:20S 28°20' E 153°38'511.5
2017-Nov-18 21:53S 28°14' E 153°38'410.9
2017-Nov-18 21:30S 28°10' E 153°37'510.9
2017-Nov-18 21:00S 28°06' E 153°34'810.9
2017-Nov-18 20:17S 27°59' E 153°29'3 9.7
2017-Nov-18 20:00S 27°57' E 153°27'2 3.7
2017-Nov-18 19:25S 27°58' E 153°25'0 0.0
2017-Nov-18 18:52S 27°58' E 153°25'0 0.0
2017-Nov-18 18:19S 27°58' E 153°25'0 0.0
2017-Nov-18 17:55S 27°58' E 153°25'0 0.0
2017-Nov-18 17:25S 27°58' E 153°25'0 0.0
2017-Nov-18 16:58S 27°58' E 153°25'0 0.0
2017-Nov-18 16:28S 27°58' E 153°25'0 0.0
2017-Nov-18 15:58S 27°58' E 153°25'0 0.0
2017-Nov-18 15:28S 27°58' E 153°25'0 0.0
2017-Nov-18 14:58S 27°58' E 153°25'0 0.0
2017-Nov-18 14:25S 27°58' E 153°25'0 0.0
2017-Nov-18 13:55S 27°58' E 153°25'0 0.0
2017-Nov-18 13:28S 27°58' E 153°25'0 0.0
2017-Nov-18 12:52S 27°58' E 153°25'0 0.0
2017-Nov-18 12:28S 27°58' E 153°25'0 0.0
2017-Nov-18 11:55S 27°58' E 153°25'0 0.0
2017-Nov-18 11:25S 27°58' E 153°25'0 0.0
2017-Nov-18 10:58S 27°58' E 153°25'0 0.0
2017-Nov-18 10:28S 27°58' E 153°25'0 0.0
2017-Nov-18 09:58S 27°58' E 153°25'0 0.0
2017-Nov-18 09:19S 27°58' E 153°25'0 0.0
2017-Nov-18 08:58S 27°58' E 153°25'0 0.0
2017-Nov-18 08:28S 27°58' E 153°25'0 0.0
2017-Nov-18 07:55S 27°58' E 153°25'0 0.0
2017-Nov-18 07:28S 27°58' E 153°25'0 0.0
2017-Nov-17 03:00S 27°58' E 153°25'0 0.0
2017-Nov-17 02:30S 27°58' E 153°25'0 0.1
2017-Nov-17 01:08S 27°58' E 153°25'1 7.1
2017-Nov-17 00:57S 27°57' E 153°25'4 5.4
2017-Nov-17 00:10S 27°57' E 153°30'4 9.5
2017-Nov-16 23:47S 27°56' E 153°26'1 4.2
2017-Nov-16 23:29S 27°57' E 153°25'1 1.9
2017-Nov-16 22:58S 27°58' E 153°25'  
2017-Nov-12 05:02S 27°58' E 153°25'0 1.7
2017-Nov-12 05:00S 27°58' E 153°25'4 4.8
2017-Nov-12 04:14S 27°54' E 153°25'0 0.0
2017-Nov-12 03:47S 27°54' E 153°25'0 0.0
2017-Nov-12 03:17S 27°54' E 153°25'0 0.0
2017-Nov-12 02:08S 27°54' E 153°25'0 0.0
2017-Nov-12 01:59S 27°54' E 153°25'1 1.3
2017-Nov-12 01:30S 27°55' E 153°25'  
Track history (hours):
 
Tides and Currents Weather Stations Pressure Air Temp Water Temp Dewpoint Dewpoint Depression Visibility Wind Speed Wind Dir Waves Ship Positions

Bella Fino

Last reported at 2017-Nov-19 23:16 UTC. Time now 2017-Nov-21 06:14 UTC.
Position S 32°55' E 152°04'.

Length 20 m.

Type: Pleasure craft. MMSI: 503519500.

Date/timePositionNaut miles runAvg speedWind from/ knotsBaromVisibWave heightAir tempDewpointWater temp
2017-Nov-19 23:16S 32°55' E 152°04'311.1
2017-Nov-19 22:59S 32°52' E 152°06'510.9
2017-Nov-19 22:30S 32°48' E 152°10'510.7
2017-Nov-19 22:00S 32°44' E 152°14'611.0
2017-Nov-19 21:30S 32°40' E 152°19'611.2
2017-Nov-19 20:59S 32°36' E 152°24'26411.7
2017-Nov-18 22:20S 28°20' E 153°38'511.5
2017-Nov-18 21:53S 28°14' E 153°38'410.9
2017-Nov-18 21:30S 28°10' E 153°37'510.9
2017-Nov-18 21:00S 28°06' E 153°34'810.9
2017-Nov-18 20:17S 27°59' E 153°29'3 9.7
2017-Nov-18 20:00S 27°57' E 153°27'2 3.7
2017-Nov-18 19:25S 27°58' E 153°25'0 0.0
2017-Nov-18 18:52S 27°58' E 153°25'0 0.0
2017-Nov-18 18:19S 27°58' E 153°25'0 0.0
2017-Nov-18 17:55S 27°58' E 153°25'0 0.0
2017-Nov-18 17:25S 27°58' E 153°25'0 0.0
2017-Nov-18 16:58S 27°58' E 153°25'0 0.0
2017-Nov-18 16:28S 27°58' E 153°25'0 0.0
2017-Nov-18 15:58S 27°58' E 153°25'0 0.0
2017-Nov-18 15:28S 27°58' E 153°25'0 0.0
2017-Nov-18 14:58S 27°58' E 153°25'0 0.0
2017-Nov-18 14:25S 27°58' E 153°25'0 0.0
2017-Nov-18 13:55S 27°58' E 153°25'0 0.0
2017-Nov-18 13:28S 27°58' E 153°25'0 0.0
2017-Nov-18 12:52S 27°58' E 153°25'0 0.0
2017-Nov-18 12:28S 27°58' E 153°25'0 0.0
2017-Nov-18 11:55S 27°58' E 153°25'0 0.0
2017-Nov-18 11:25S 27°58' E 153°25'0 0.0
2017-Nov-18 10:58S 27°58' E 153°25'0 0.0
2017-Nov-18 10:28S 27°58' E 153°25'0 0.0
2017-Nov-18 09:58S 27°58' E 153°25'0 0.0
2017-Nov-18 09:19S 27°58' E 153°25'0 0.0
2017-Nov-18 08:58S 27°58' E 153°25'0 0.0
2017-Nov-18 08:28S 27°58' E 153°25'0 0.0
2017-Nov-18 07:55S 27°58' E 153°25'0 0.0
2017-Nov-18 07:28S 27°58' E 153°25'0 0.0
2017-Nov-17 03:00S 27°58' E 153°25'0 0.0
2017-Nov-17 02:30S 27°58' E 153°25'0 0.1
2017-Nov-17 01:08S 27°58' E 153°25'1 7.1
2017-Nov-17 00:57S 27°57' E 153°25'4 5.4
2017-Nov-17 00:10S 27°57' E 153°30'4 9.5
2017-Nov-16 23:47S 27°56' E 153°26'1 4.2
2017-Nov-16 23:29S 27°57' E 153°25'1 1.9
2017-Nov-16 22:58S 27°58' E 153°25'  
2017-Nov-12 05:02S 27°58' E 153°25'0 1.7
2017-Nov-12 05:00S 27°58' E 153°25'4 4.8
2017-Nov-12 04:14S 27°54' E 153°25'0 0.0
2017-Nov-12 03:47S 27°54' E 153°25'0 0.0
2017-Nov-12 03:17S 27°54' E 153°25'0 0.0
2017-Nov-12 02:08S 27°54' E 153°25'0 0.0
2017-Nov-12 01:59S 27°54' E 153°25'1 1.3
2017-Nov-12 01:30S 27°55' E 153°25'  

Dump ship's entire track history